sensor_id;sensor_type;location;lat;lon;timestamp;P1;durP1;ratioP1;P2;durP2;ratioP2
78296;SDS011;67555;47.660;19.622;2023-08-21T08:55:36;8.68;;;6.95;;
78296;SDS011;67555;47.660;19.622;2023-08-21T08:58:01;9.88;;;6.82;;
78296;SDS011;67555;47.660;19.622;2023-08-21T09:00:27;8.40;;;7.20;;
78296;SDS011;67555;47.660;19.622;2023-08-21T09:02:53;9.20;;;7.47;;
78296;SDS011;67555;47.660;19.622;2023-08-21T09:05:20;8.18;;;7.32;;
78296;SDS011;67555;47.660;19.622;2023-08-21T09:07:46;10.88;;;7.88;;
78296;SDS011;67555;47.660;19.622;2023-08-21T09:10:37;10.50;;;8.20;;
78296;SDS011;67555;47.660;19.622;2023-08-21T09:13:16;11.40;;;7.88;;
78296;SDS011;67555;47.660;19.622;2023-08-21T09:15:45;9.73;;;8.00;;
78296;SDS011;67555;47.660;19.622;2023-08-21T09:18:14;10.73;;;8.63;;
78296;SDS011;67555;47.660;19.622;2023-08-21T09:20:41;9.73;;;7.97;;
78296;SDS011;67555;47.660;19.622;2023-08-21T09:23:07;12.80;;;8.93;;
78296;SDS011;67555;47.660;19.622;2023-08-21T09:25:39;10.48;;;7.78;;
78296;SDS011;67555;47.660;19.622;2023-08-21T09:28:06;9.23;;;7.75;;
78296;SDS011;67555;47.660;19.622;2023-08-21T09:33:16;9.25;;;7.13;;
78296;SDS011;67555;47.660;19.622;2023-08-21T09:35:44;9.57;;;6.60;;
78296;SDS011;67555;47.660;19.622;2023-08-21T09:38:10;9.50;;;6.35;;
78296;SDS011;67555;47.660;19.622;2023-08-21T09:40:39;8.13;;;7.00;;
78296;SDS011;67555;47.660;19.622;2023-08-21T09:43:06;8.45;;;7.13;;
78296;SDS011;67555;47.660;19.622;2023-08-21T09:45:34;9.98;;;7.85;;
78296;SDS011;67555;47.660;19.622;2023-08-21T09:48:00;8.50;;;6.70;;
78296;SDS011;67555;47.660;19.622;2023-08-21T09:50:31;9.00;;;7.20;;
78296;SDS011;67555;47.660;19.622;2023-08-21T09:52:57;14.15;;;6.50;;
78296;SDS011;67555;47.660;19.622;2023-08-21T09:55:24;8.85;;;7.68;;
78296;SDS011;67555;47.660;19.622;2023-08-21T09:57:54;7.60;;;6.78;;
78296;SDS011;67555;47.660;19.622;2023-08-21T10:00:26;8.50;;;6.78;;
78296;SDS011;67555;47.660;19.622;2023-08-21T10:02:54;9.15;;;7.47;;
78296;SDS011;67555;47.660;19.622;2023-08-21T10:05:28;9.02;;;6.35;;
78296;SDS011;67555;47.660;19.622;2023-08-21T10:07:56;10.32;;;6.82;;
78296;SDS011;67555;47.660;19.622;2023-08-21T10:10:26;9.38;;;6.18;;
78296;SDS011;67555;47.660;19.622;2023-08-21T10:12:58;8.40;;;6.45;;
78296;SDS011;67555;47.660;19.622;2023-08-21T10:15:24;7.93;;;6.70;;
78296;SDS011;67555;47.660;19.622;2023-08-21T10:17:56;8.23;;;7.03;;
78296;SDS011;67555;47.660;19.622;2023-08-21T10:20:22;8.52;;;6.60;;
78296;SDS011;67555;47.660;19.622;2023-08-21T10:22:54;9.20;;;6.35;;
78296;SDS011;67555;47.660;19.622;2023-08-21T10:25:28;6.63;;;6.00;;
78296;SDS011;67555;47.660;19.622;2023-08-21T10:27:55;7.88;;;6.60;;
78296;SDS011;67555;47.660;19.622;2023-08-21T10:30:26;7.57;;;6.47;;
78296;SDS011;67555;47.660;19.622;2023-08-21T10:32:57;7.53;;;6.45;;
78296;SDS011;67555;47.660;19.622;2023-08-21T10:35:30;8.95;;;6.65;;
78296;SDS011;67555;47.660;19.622;2023-08-21T10:38:06;6.60;;;6.00;;
78296;SDS011;67555;47.660;19.622;2023-08-21T10:43:39;7.35;;;6.50;;
78296;SDS011;67555;47.660;19.622;2023-08-21T10:46:09;8.75;;;5.80;;
78296;SDS011;67555;47.660;19.622;2023-08-21T10:48:36;7.80;;;6.20;;
78296;SDS011;67555;47.660;19.622;2023-08-21T10:51:03;6.75;;;5.97;;
78296;SDS011;67555;47.660;19.622;2023-08-21T10:53:31;8.40;;;6.28;;
78296;SDS011;67555;47.660;19.622;2023-08-21T10:56:02;8.40;;;6.43;;
78296;SDS011;67555;47.660;19.622;2023-08-21T10:58:49;8.07;;;6.45;;
78296;SDS011;67555;47.660;19.622;2023-08-21T11:01:16;8.55;;;6.53;;
78296;SDS011;67555;47.660;19.622;2023-08-21T11:03:45;7.88;;;5.80;;
78296;SDS011;67555;47.660;19.622;2023-08-21T11:06:18;7.15;;;6.15;;
78296;SDS011;67555;47.660;19.622;2023-08-21T11:08:44;7.85;;;6.05;;
78296;SDS011;67555;47.660;19.622;2023-08-21T11:11:10;7.25;;;5.88;;
78296;SDS011;67555;47.660;19.622;2023-08-21T11:13:35;9.90;;;6.90;;
78296;SDS011;67555;47.660;19.622;2023-08-21T11:16:02;8.82;;;6.22;;
78296;SDS011;67555;47.660;19.622;2023-08-21T11:18:30;8.50;;;6.20;;
78296;SDS011;67555;47.660;19.622;2023-08-21T11:23:36;7.05;;;6.10;;
78296;SDS011;67555;47.660;19.622;2023-08-21T11:28:29;7.68;;;6.53;;
78296;SDS011;67555;47.660;19.622;2023-08-21T11:30:56;6.47;;;5.88;;
78296;SDS011;67555;47.660;19.622;2023-08-21T11:33:22;7.78;;;6.35;;
78296;SDS011;67555;47.660;19.622;2023-08-21T11:35:49;7.22;;;5.90;;
78296;SDS011;67555;47.660;19.622;2023-08-21T11:38:17;6.57;;;5.80;;
78296;SDS011;67555;47.660;19.622;2023-08-21T11:43:20;8.30;;;5.72;;
78296;SDS011;67555;47.660;19.622;2023-08-21T11:45:47;8.43;;;5.55;;
78296;SDS011;67555;47.660;19.622;2023-08-21T11:48:13;6.47;;;5.65;;
78296;SDS011;67555;47.660;19.622;2023-08-21T11:50:40;7.30;;;5.22;;
78296;SDS011;67555;47.660;19.622;2023-08-21T11:53:05;6.35;;;5.75;;
78296;SDS011;67555;47.660;19.622;2023-08-21T11:55:31;6.50;;;5.55;;
78296;SDS011;67555;47.660;19.622;2023-08-21T11:57:57;6.65;;;5.65;;
78296;SDS011;67555;47.660;19.622;2023-08-21T12:00:29;6.97;;;6.28;;
78296;SDS011;67555;47.660;19.622;2023-08-21T12:02:56;6.68;;;5.95;;
78296;SDS011;67555;47.660;19.622;2023-08-21T12:05:23;6.18;;;5.55;;
78296;SDS011;67555;47.660;19.622;2023-08-21T12:07:49;7.47;;;6.68;;
78296;SDS011;67555;47.660;19.622;2023-08-21T12:10:21;6.97;;;6.28;;
78296;SDS011;67555;47.660;19.622;2023-08-21T12:12:49;9.60;;;6.30;;
78296;SDS011;67555;47.660;19.622;2023-08-21T12:15:15;7.22;;;6.32;;
78296;SDS011;67555;47.660;19.622;2023-08-21T12:17:41;7.22;;;5.75;;
78296;SDS011;67555;47.660;19.622;2023-08-21T12:20:07;7.75;;;5.75;;
78296;SDS011;67555;47.660;19.622;2023-08-21T12:22:36;7.45;;;5.70;;
78296;SDS011;67555;47.660;19.622;2023-08-21T12:25:05;7.00;;;5.70;;
78296;SDS011;67555;47.660;19.622;2023-08-21T12:27:32;8.40;;;6.47;;
78296;SDS011;67555;47.660;19.622;2023-08-21T12:29:57;10.60;;;6.03;;
78296;SDS011;67555;47.660;19.622;2023-08-21T12:32:23;6.88;;;6.00;;
78296;SDS011;67555;47.660;19.622;2023-08-21T12:34:49;8.15;;;5.57;;
78296;SDS011;67555;47.660;19.622;2023-08-21T12:37:15;10.20;;;7.07;;
78296;SDS011;67555;47.660;19.622;2023-08-21T12:39:42;7.78;;;5.43;;
78296;SDS011;67555;47.660;19.622;2023-08-21T12:42:08;6.97;;;6.03;;
78296;SDS011;67555;47.660;19.622;2023-08-21T12:44:34;6.78;;;5.25;;
78296;SDS011;67555;47.660;19.622;2023-08-21T12:47:00;7.72;;;5.68;;
78296;SDS011;67555;47.660;19.622;2023-08-21T12:49:25;8.90;;;5.57;;
78296;SDS011;67555;47.660;19.622;2023-08-21T12:51:51;7.25;;;5.40;;
78296;SDS011;67555;47.660;19.622;2023-08-21T12:54:18;6.38;;;5.50;;
78296;SDS011;67555;47.660;19.622;2023-08-21T12:56:44;8.75;;;6.40;;
78296;SDS011;67555;47.660;19.622;2023-08-21T12:59:10;6.60;;;5.93;;
78296;SDS011;67555;47.660;19.622;2023-08-21T13:01:35;6.82;;;5.68;;
78296;SDS011;67555;47.660;19.622;2023-08-21T13:04:02;6.85;;;5.63;;
78296;SDS011;67555;47.660;19.622;2023-08-21T13:06:28;5.93;;;5.10;;
78296;SDS011;67555;47.660;19.622;2023-08-21T13:08:54;5.63;;;5.13;;
78296;SDS011;67555;47.660;19.622;2023-08-21T13:11:20;6.50;;;5.25;;
78296;SDS011;67555;47.660;19.622;2023-08-21T13:13:46;7.93;;;5.97;;
78296;SDS011;67555;47.660;19.622;2023-08-21T13:16:12;5.90;;;5.25;;
78296;SDS011;67555;47.660;19.622;2023-08-21T13:18:38;6.07;;;4.93;;
78296;SDS011;67555;47.660;19.622;2023-08-21T13:21:04;5.93;;;5.20;;
78296;SDS011;67555;47.660;19.622;2023-08-21T13:23:30;6.00;;;5.28;;
78296;SDS011;67555;47.660;19.622;2023-08-21T13:25:56;5.68;;;5.07;;
78296;SDS011;67555;47.660;19.622;2023-08-21T13:28:23;6.95;;;5.75;;
78296;SDS011;67555;47.660;19.622;2023-08-21T13:30:49;8.43;;;6.30;;
78296;SDS011;67555;47.660;19.622;2023-08-21T13:33:15;8.02;;;5.80;;
78296;SDS011;67555;47.660;19.622;2023-08-21T13:35:43;7.90;;;5.72;;
78296;SDS011;67555;47.660;19.622;2023-08-21T13:38:09;6.50;;;5.15;;
78296;SDS011;67555;47.660;19.622;2023-08-21T13:40:35;5.95;;;5.35;;
78296;SDS011;67555;47.660;19.622;2023-08-21T13:43:01;7.18;;;5.50;;
78296;SDS011;67555;47.660;19.622;2023-08-21T13:45:28;8.25;;;5.65;;
78296;SDS011;67555;47.660;19.622;2023-08-21T13:47:54;8.15;;;5.07;;
78296;SDS011;67555;47.660;19.622;2023-08-21T13:50:19;7.50;;;5.35;;
78296;SDS011;67555;47.660;19.622;2023-08-21T13:52:46;6.88;;;5.30;;
78296;SDS011;67555;47.660;19.622;2023-08-21T13:55:13;6.18;;;4.95;;
78296;SDS011;67555;47.660;19.622;2023-08-21T13:57:39;5.72;;;5.05;;
78296;SDS011;67555;47.660;19.622;2023-08-21T14:00:06;7.68;;;5.72;;
78296;SDS011;67555;47.660;19.622;2023-08-21T14:04:59;6.32;;;5.53;;
78296;SDS011;67555;47.660;19.622;2023-08-21T14:07:26;7.82;;;6.03;;
78296;SDS011;67555;47.660;19.622;2023-08-21T14:09:51;6.25;;;5.05;;
78296;SDS011;67555;47.660;19.622;2023-08-21T14:12:18;5.95;;;5.30;;
78296;SDS011;67555;47.660;19.622;2023-08-21T14:14:44;5.57;;;4.97;;
78296;SDS011;67555;47.660;19.622;2023-08-21T14:17:10;7.07;;;4.80;;
78296;SDS011;67555;47.660;19.622;2023-08-21T14:19:36;7.53;;;4.95;;
78296;SDS011;67555;47.660;19.622;2023-08-21T14:22:01;5.80;;;4.90;;
78296;SDS011;67555;47.660;19.622;2023-08-21T14:24:28;5.63;;;4.95;;
78296;SDS011;67555;47.660;19.622;2023-08-21T14:26:54;7.30;;;5.05;;
78296;SDS011;67555;47.660;19.622;2023-08-21T14:29:19;6.35;;;5.07;;
78296;SDS011;67555;47.660;19.622;2023-08-21T14:31:45;9.15;;;5.53;;
78296;SDS011;67555;47.660;19.622;2023-08-21T14:34:12;7.10;;;5.35;;
78296;SDS011;67555;47.660;19.622;2023-08-21T14:36:38;6.05;;;5.25;;
78296;SDS011;67555;47.660;19.622;2023-08-21T14:39:04;6.93;;;5.40;;
78296;SDS011;67555;47.660;19.622;2023-08-21T14:41:31;6.47;;;5.32;;
78296;SDS011;67555;47.660;19.622;2023-08-21T14:43:57;6.03;;;5.43;;
78296;SDS011;67555;47.660;19.622;2023-08-21T14:46:22;6.60;;;5.68;;
78296;SDS011;67555;47.660;19.622;2023-08-21T14:48:50;6.13;;;5.13;;
78296;SDS011;67555;47.660;19.622;2023-08-21T14:51:15;5.50;;;4.90;;
78296;SDS011;67555;47.660;19.622;2023-08-21T14:53:41;8.45;;;5.20;;
78296;SDS011;67555;47.660;19.622;2023-08-21T14:56:07;6.20;;;5.05;;
78296;SDS011;67555;47.660;19.622;2023-08-21T14:58:32;8.25;;;5.25;;
78296;SDS011;67555;47.660;19.622;2023-08-21T15:00:58;6.35;;;5.72;;
78296;SDS011;67555;47.660;19.622;2023-08-21T15:03:24;7.50;;;5.53;;
78296;SDS011;67555;47.660;19.622;2023-08-21T15:05:50;8.40;;;5.75;;
78296;SDS011;67555;47.660;19.622;2023-08-21T15:08:16;8.88;;;5.65;;
78296;SDS011;67555;47.660;19.622;2023-08-21T15:10:42;6.68;;;5.47;;
78296;SDS011;67555;47.660;19.622;2023-08-21T15:13:08;6.05;;;5.45;;
78296;SDS011;67555;47.660;19.622;2023-08-21T15:15:35;6.25;;;5.43;;
78296;SDS011;67555;47.660;19.622;2023-08-21T15:18:01;7.55;;;5.28;;
78296;SDS011;67555;47.660;19.622;2023-08-21T15:20:26;8.48;;;6.15;;
78296;SDS011;67555;47.660;19.622;2023-08-21T15:22:52;7.13;;;5.47;;
78296;SDS011;67555;47.660;19.622;2023-08-21T15:25:18;6.78;;;5.22;;
78296;SDS011;67555;47.660;19.622;2023-08-21T15:27:45;7.82;;;4.97;;
78296;SDS011;67555;47.660;19.622;2023-08-21T15:30:11;5.97;;;4.80;;
78296;SDS011;67555;47.660;19.622;2023-08-21T15:32:36;7.93;;;5.03;;
78296;SDS011;67555;47.660;19.622;2023-08-21T15:35:02;6.07;;;4.80;;
78296;SDS011;67555;47.660;19.622;2023-08-21T15:37:30;6.95;;;5.20;;
78296;SDS011;67555;47.660;19.622;2023-08-21T15:39:56;6.15;;;5.15;;
78296;SDS011;67555;47.660;19.622;2023-08-21T15:42:23;7.07;;;5.07;;
78296;SDS011;67555;47.660;19.622;2023-08-21T15:44:48;6.28;;;4.90;;
78296;SDS011;67555;47.660;19.622;2023-08-21T15:47:14;9.77;;;5.03;;
78296;SDS011;67555;47.660;19.622;2023-08-21T15:49:40;5.80;;;5.15;;
78296;SDS011;67555;47.660;19.622;2023-08-21T15:52:05;6.30;;;5.32;;
78296;SDS011;67555;47.660;19.622;2023-08-21T15:54:33;6.50;;;5.28;;
78296;SDS011;67555;47.660;19.622;2023-08-21T15:57:02;6.22;;;4.88;;
78296;SDS011;67555;47.660;19.622;2023-08-21T15:59:29;7.97;;;6.15;;
78296;SDS011;67555;47.660;19.622;2023-08-21T16:01:55;6.28;;;5.15;;
78296;SDS011;67555;47.660;19.622;2023-08-21T16:04:20;9.18;;;5.53;;
78296;SDS011;67555;47.660;19.622;2023-08-21T16:06:47;5.45;;;4.63;;
78296;SDS011;67555;47.660;19.622;2023-08-21T16:09:13;7.72;;;5.22;;
78296;SDS011;67555;47.660;19.622;2023-08-21T16:11:39;5.32;;;4.75;;
78296;SDS011;67555;47.660;19.622;2023-08-21T16:14:04;6.03;;;5.22;;
78296;SDS011;67555;47.660;19.622;2023-08-21T16:19:02;7.53;;;5.03;;
78296;SDS011;67555;47.660;19.622;2023-08-21T16:21:28;6.72;;;5.32;;
78296;SDS011;67555;47.660;19.622;2023-08-21T16:23:54;5.93;;;4.95;;
78296;SDS011;67555;47.660;19.622;2023-08-21T16:26:19;6.35;;;4.90;;
78296;SDS011;67555;47.660;19.622;2023-08-21T16:28:45;6.82;;;4.68;;
78296;SDS011;67555;47.660;19.622;2023-08-21T16:31:13;5.80;;;5.20;;
78296;SDS011;67555;47.660;19.622;2023-08-21T16:33:40;6.15;;;5.35;;
78296;SDS011;67555;47.660;19.622;2023-08-21T16:36:06;5.80;;;5.20;;
78296;SDS011;67555;47.660;19.622;2023-08-21T16:38:32;6.70;;;5.10;;
78296;SDS011;67555;47.660;19.622;2023-08-21T16:40:58;5.65;;;4.53;;
78296;SDS011;67555;47.660;19.622;2023-08-21T16:43:24;5.65;;;5.05;;
78296;SDS011;67555;47.660;19.622;2023-08-21T16:45:50;6.22;;;5.43;;
78296;SDS011;67555;47.660;19.622;2023-08-21T16:48:16;6.25;;;5.30;;
78296;SDS011;67555;47.660;19.622;2023-08-21T16:50:42;6.82;;;5.28;;
78296;SDS011;67555;47.660;19.622;2023-08-21T16:53:08;6.93;;;4.85;;
78296;SDS011;67555;47.660;19.622;2023-08-21T16:55:34;6.43;;;5.28;;
78296;SDS011;67555;47.660;19.622;2023-08-21T16:58:00;7.40;;;5.68;;
78296;SDS011;67555;47.660;19.622;2023-08-21T17:00:26;5.85;;;4.93;;
78296;SDS011;67555;47.660;19.622;2023-08-21T17:02:53;6.85;;;5.45;;
78296;SDS011;67555;47.660;19.622;2023-08-21T17:05:19;7.05;;;5.22;;
78296;SDS011;67555;47.660;19.622;2023-08-21T17:07:45;5.72;;;4.85;;
78296;SDS011;67555;47.660;19.622;2023-08-21T17:10:11;6.18;;;4.97;;
78296;SDS011;67555;47.660;19.622;2023-08-21T17:12:37;8.55;;;5.15;;
78296;SDS011;67555;47.660;19.622;2023-08-21T17:15:03;5.47;;;4.57;;
78296;SDS011;67555;47.660;19.622;2023-08-21T17:17:30;8.07;;;5.07;;
78296;SDS011;67555;47.660;19.622;2023-08-21T17:19:56;7.47;;;5.22;;
78296;SDS011;67555;47.660;19.622;2023-08-21T17:22:23;6.90;;;5.00;;
78296;SDS011;67555;47.660;19.622;2023-08-21T17:24:49;9.18;;;4.82;;
78296;SDS011;67555;47.660;19.622;2023-08-21T17:27:16;8.13;;;5.18;;
78296;SDS011;67555;47.660;19.622;2023-08-21T17:29:43;15.50;;;5.70;;
78296;SDS011;67555;47.660;19.622;2023-08-21T17:32:12;15.80;;;6.78;;
78296;SDS011;67555;47.660;19.622;2023-08-21T17:34:59;10.27;;;5.78;;
78296;SDS011;67555;47.660;19.622;2023-08-21T17:37:25;10.93;;;6.15;;
78296;SDS011;67555;47.660;19.622;2023-08-21T17:39:57;13.98;;;7.22;;
78296;SDS011;67555;47.660;19.622;2023-08-21T17:42:25;8.65;;;5.35;;
78296;SDS011;67555;47.660;19.622;2023-08-21T17:44:51;11.30;;;5.03;;
78296;SDS011;67555;47.660;19.622;2023-08-21T17:47:19;8.68;;;5.70;;
78296;SDS011;67555;47.660;19.622;2023-08-21T17:49:44;12.77;;;5.47;;
78296;SDS011;67555;47.660;19.622;2023-08-21T17:52:11;11.63;;;5.18;;
78296;SDS011;67555;47.660;19.622;2023-08-21T17:54:45;18.75;;;7.18;;
78296;SDS011;67555;47.660;19.622;2023-08-21T17:57:12;24.83;;;9.93;;
78296;SDS011;67555;47.660;19.622;2023-08-21T17:59:38;41.40;;;13.50;;
78296;SDS011;67555;47.660;19.622;2023-08-21T18:02:04;40.95;;;13.00;;
78296;SDS011;67555;47.660;19.622;2023-08-21T18:04:30;42.47;;;13.13;;
78296;SDS011;67555;47.660;19.622;2023-08-21T18:06:56;20.38;;;8.32;;
78296;SDS011;67555;47.660;19.622;2023-08-21T18:09:23;21.98;;;8.52;;
78296;SDS011;67555;47.660;19.622;2023-08-21T18:11:49;26.70;;;9.63;;
78296;SDS011;67555;47.660;19.622;2023-08-21T18:14:15;19.77;;;7.63;;
78296;SDS011;67555;47.660;19.622;2023-08-21T18:16:41;17.23;;;7.13;;
78296;SDS011;67555;47.660;19.622;2023-08-21T18:19:10;12.07;;;6.28;;
78296;SDS011;67555;47.660;19.622;2023-08-21T18:21:36;11.10;;;5.75;;
78296;SDS011;67555;47.660;19.622;2023-08-21T18:24:02;9.93;;;5.53;;
78296;SDS011;67555;47.660;19.622;2023-08-21T18:26:29;13.00;;;6.38;;
78296;SDS011;67555;47.660;19.622;2023-08-21T18:28:55;8.95;;;5.68;;
78296;SDS011;67555;47.660;19.622;2023-08-21T18:31:21;12.07;;;5.38;;
78296;SDS011;67555;47.660;19.622;2023-08-21T18:33:47;7.90;;;5.78;;
78296;SDS011;67555;47.660;19.622;2023-08-21T18:36:13;7.25;;;5.93;;
78296;SDS011;67555;47.660;19.622;2023-08-21T18:38:39;6.25;;;5.43;;
78296;SDS011;67555;47.660;19.622;2023-08-21T18:41:07;10.02;;;5.53;;
78296;SDS011;67555;47.660;19.622;2023-08-21T18:43:33;9.55;;;5.45;;
78296;SDS011;67555;47.660;19.622;2023-08-21T18:46:00;8.15;;;6.28;;
78296;SDS011;67555;47.660;19.622;2023-08-21T18:48:27;9.52;;;5.85;;
78296;SDS011;67555;47.660;19.622;2023-08-21T18:50:54;7.80;;;6.03;;
78296;SDS011;67555;47.660;19.622;2023-08-21T18:53:20;9.43;;;5.97;;
78296;SDS011;67555;47.660;19.622;2023-08-21T18:55:46;12.70;;;6.57;;
78296;SDS011;67555;47.660;19.622;2023-08-21T18:58:12;9.25;;;6.15;;
78296;SDS011;67555;47.660;19.622;2023-08-21T19:00:39;10.18;;;7.03;;
78296;SDS011;67555;47.660;19.622;2023-08-21T19:03:05;12.57;;;8.00;;
78296;SDS011;67555;47.660;19.622;2023-08-21T19:05:32;10.63;;;6.22;;
78296;SDS011;67555;47.660;19.622;2023-08-21T19:07:59;8.23;;;5.93;;
78296;SDS011;67555;47.660;19.622;2023-08-21T19:10:26;11.95;;;6.45;;
78296;SDS011;67555;47.660;19.622;2023-08-21T19:12:52;8.00;;;6.15;;
78296;SDS011;67555;47.660;19.622;2023-08-21T19:15:19;8.85;;;5.93;;
78296;SDS011;67555;47.660;19.622;2023-08-21T19:17:46;11.93;;;7.35;;
78296;SDS011;67555;47.660;19.622;2023-08-21T19:20:13;18.35;;;7.90;;
78296;SDS011;67555;47.660;19.622;2023-08-21T19:22:39;9.25;;;7.10;;
78296;SDS011;67555;47.660;19.622;2023-08-21T19:25:06;10.65;;;7.03;;
78296;SDS011;67555;47.660;19.622;2023-08-21T19:27:32;10.85;;;7.38;;
78296;SDS011;67555;47.660;19.622;2023-08-21T19:29:58;12.52;;;7.45;;
78296;SDS011;67555;47.660;19.622;2023-08-21T19:32:25;15.27;;;9.48;;
78296;SDS011;67555;47.660;19.622;2023-08-21T19:34:51;15.02;;;7.50;;
78296;SDS011;67555;47.660;19.622;2023-08-21T19:37:20;12.77;;;9.10;;
78296;SDS011;67555;47.660;19.622;2023-08-21T19:39:46;13.27;;;9.13;;
78296;SDS011;67555;47.660;19.622;2023-08-21T19:42:14;10.80;;;8.32;;
78296;SDS011;67555;47.660;19.622;2023-08-21T19:44:40;11.65;;;7.97;;
78296;SDS011;67555;47.660;19.622;2023-08-21T19:47:07;10.18;;;7.85;;
78296;SDS011;67555;47.660;19.622;2023-08-21T19:49:34;10.15;;;7.45;;
78296;SDS011;67555;47.660;19.622;2023-08-21T19:52:00;9.20;;;6.50;;
78296;SDS011;67555;47.660;19.622;2023-08-21T19:54:26;9.43;;;7.47;;
78296;SDS011;67555;47.660;19.622;2023-08-21T19:56:53;8.95;;;7.20;;
78296;SDS011;67555;47.660;19.622;2023-08-21T19:59:20;9.52;;;7.05;;
78296;SDS011;67555;47.660;19.622;2023-08-21T20:01:48;9.63;;;7.22;;
78296;SDS011;67555;47.660;19.622;2023-08-21T20:04:15;10.35;;;7.22;;
78296;SDS011;67555;47.660;19.622;2023-08-21T20:06:41;9.80;;;7.18;;
78296;SDS011;67555;47.660;19.622;2023-08-21T20:09:08;8.40;;;6.65;;
78296;SDS011;67555;47.660;19.622;2023-08-21T20:11:35;10.52;;;7.78;;
78296;SDS011;67555;47.660;19.622;2023-08-21T20:14:02;12.05;;;7.55;;
78296;SDS011;67555;47.660;19.622;2023-08-21T20:16:28;10.57;;;7.47;;
78296;SDS011;67555;47.660;19.622;2023-08-21T20:18:55;14.57;;;7.68;;
78296;SDS011;67555;47.660;19.622;2023-08-21T20:21:23;11.13;;;7.60;;
78296;SDS011;67555;47.660;19.622;2023-08-21T20:23:51;10.93;;;8.13;;
78296;SDS011;67555;47.660;19.622;2023-08-21T20:26:18;12.77;;;7.22;;
78296;SDS011;67555;47.660;19.622;2023-08-21T20:28:44;10.02;;;7.50;;
78296;SDS011;67555;47.660;19.622;2023-08-21T20:31:11;10.02;;;7.38;;
78296;SDS011;67555;47.660;19.622;2023-08-21T20:33:37;10.88;;;7.65;;
78296;SDS011;67555;47.660;19.622;2023-08-21T20:36:03;10.65;;;8.23;;
78296;SDS011;67555;47.660;19.622;2023-08-21T20:38:29;10.73;;;8.27;;
78296;SDS011;67555;47.660;19.622;2023-08-21T20:41:01;10.40;;;7.95;;
78296;SDS011;67555;47.660;19.622;2023-08-21T20:43:32;9.23;;;7.35;;
78296;SDS011;67555;47.660;19.622;2023-08-21T20:46:05;9.23;;;6.93;;
78296;SDS011;67555;47.660;19.622;2023-08-21T20:48:32;13.55;;;8.65;;
78296;SDS011;67555;47.660;19.622;2023-08-21T20:50:58;10.15;;;7.05;;
78296;SDS011;67555;47.660;19.622;2023-08-21T20:53:25;11.07;;;8.45;;
78296;SDS011;67555;47.660;19.622;2023-08-21T20:55:52;8.68;;;7.45;;
78296;SDS011;67555;47.660;19.622;2023-08-21T20:58:20;9.65;;;7.75;;
78296;SDS011;67555;47.660;19.622;2023-08-21T21:00:46;11.15;;;7.80;;
78296;SDS011;67555;47.660;19.622;2023-08-21T21:03:12;12.82;;;8.13;;
78296;SDS011;67555;47.660;19.622;2023-08-21T21:05:40;12.57;;;8.25;;
78296;SDS011;67555;47.660;19.622;2023-08-21T21:08:06;8.77;;;7.20;;
78296;SDS011;67555;47.660;19.622;2023-08-21T21:10:32;13.07;;;8.05;;
78296;SDS011;67555;47.660;19.622;2023-08-21T21:12:58;10.95;;;7.53;;
78296;SDS011;67555;47.660;19.622;2023-08-21T21:15:24;11.50;;;8.20;;
78296;SDS011;67555;47.660;19.622;2023-08-21T21:17:50;11.50;;;7.63;;
78296;SDS011;67555;47.660;19.622;2023-08-21T21:20:15;11.35;;;7.50;;
78296;SDS011;67555;47.660;19.622;2023-08-21T21:22:41;11.43;;;8.52;;
78296;SDS011;67555;47.660;19.622;2023-08-21T21:25:07;10.10;;;8.23;;
78296;SDS011;67555;47.660;19.622;2023-08-21T21:27:33;11.25;;;8.50;;
78296;SDS011;67555;47.660;19.622;2023-08-21T21:29:59;11.73;;;7.57;;
78296;SDS011;67555;47.660;19.622;2023-08-21T21:32:25;9.75;;;7.88;;
78296;SDS011;67555;47.660;19.622;2023-08-21T21:34:51;14.88;;;8.63;;
78296;SDS011;67555;47.660;19.622;2023-08-21T21:37:17;10.95;;;7.70;;
78296;SDS011;67555;47.660;19.622;2023-08-21T21:39:43;12.18;;;7.22;;
78296;SDS011;67555;47.660;19.622;2023-08-21T21:42:08;10.18;;;8.00;;
78296;SDS011;67555;47.660;19.622;2023-08-21T21:44:34;10.07;;;7.40;;
78296;SDS011;67555;47.660;19.622;2023-08-21T21:47:00;9.55;;;7.03;;
78296;SDS011;67555;47.660;19.622;2023-08-21T21:49:26;11.85;;;7.82;;
78296;SDS011;67555;47.660;19.622;2023-08-21T21:51:51;9.98;;;6.88;;
78296;SDS011;67555;47.660;19.622;2023-08-21T21:54:17;9.88;;;7.43;;
78296;SDS011;67555;47.660;19.622;2023-08-21T21:56:43;9.82;;;7.70;;
78296;SDS011;67555;47.660;19.622;2023-08-21T21:59:10;11.10;;;7.75;;
78296;SDS011;67555;47.660;19.622;2023-08-21T22:01:35;9.82;;;7.38;;
78296;SDS011;67555;47.660;19.622;2023-08-21T22:04:01;10.05;;;7.40;;
78296;SDS011;67555;47.660;19.622;2023-08-21T22:06:28;12.27;;;7.90;;
78296;SDS011;67555;47.660;19.622;2023-08-21T22:08:54;11.40;;;7.30;;
78296;SDS011;67555;47.660;19.622;2023-08-21T22:11:20;12.05;;;7.28;;
78296;SDS011;67555;47.660;19.622;2023-08-21T22:13:46;10.32;;;7.38;;
78296;SDS011;67555;47.660;19.622;2023-08-21T22:16:12;10.65;;;7.47;;
78296;SDS011;67555;47.660;19.622;2023-08-21T22:18:38;10.30;;;7.20;;
78296;SDS011;67555;47.660;19.622;2023-08-21T22:21:04;11.00;;;8.45;;
78296;SDS011;67555;47.660;19.622;2023-08-21T22:23:34;10.27;;;7.72;;
78296;SDS011;67555;47.660;19.622;2023-08-21T22:25:59;14.13;;;7.95;;
78296;SDS011;67555;47.660;19.622;2023-08-21T22:28:25;11.95;;;8.55;;
78296;SDS011;67555;47.660;19.622;2023-08-21T22:30:51;11.88;;;9.05;;
78296;SDS011;67555;47.660;19.622;2023-08-21T22:33:16;14.77;;;8.88;;
78296;SDS011;67555;47.660;19.622;2023-08-21T22:35:43;13.13;;;9.77;;
78296;SDS011;67555;47.660;19.622;2023-08-21T22:38:09;11.23;;;7.70;;
78296;SDS011;67555;47.660;19.622;2023-08-21T22:40:35;12.55;;;8.13;;
78296;SDS011;67555;47.660;19.622;2023-08-21T22:43:00;10.57;;;7.60;;
78296;SDS011;67555;47.660;19.622;2023-08-21T22:45:26;11.60;;;8.70;;
78296;SDS011;67555;47.660;19.622;2023-08-21T22:47:52;13.57;;;8.48;;
78296;SDS011;67555;47.660;19.622;2023-08-21T22:50:17;12.82;;;8.27;;
78296;SDS011;67555;47.660;19.622;2023-08-21T22:52:43;11.10;;;7.78;;
78296;SDS011;67555;47.660;19.622;2023-08-21T22:55:09;10.45;;;8.15;;
78296;SDS011;67555;47.660;19.622;2023-08-21T22:57:36;11.23;;;8.18;;
78296;SDS011;67555;47.660;19.622;2023-08-21T23:00:02;11.88;;;8.43;;
78296;SDS011;67555;47.660;19.622;2023-08-21T23:02:31;11.20;;;8.10;;
78296;SDS011;67555;47.660;19.622;2023-08-21T23:04:56;11.88;;;7.85;;
78296;SDS011;67555;47.660;19.622;2023-08-21T23:07:22;11.43;;;8.15;;
78296;SDS011;67555;47.660;19.622;2023-08-21T23:09:48;11.77;;;8.48;;
78296;SDS011;67555;47.660;19.622;2023-08-21T23:12:14;11.45;;;8.20;;
78296;SDS011;67555;47.660;19.622;2023-08-21T23:14:40;12.15;;;7.88;;
78296;SDS011;67555;47.660;19.622;2023-08-21T23:17:06;12.18;;;7.68;;
78296;SDS011;67555;47.660;19.622;2023-08-21T23:19:32;11.52;;;7.95;;
78296;SDS011;67555;47.660;19.622;2023-08-21T23:21:59;8.63;;;6.57;;
78296;SDS011;67555;47.660;19.622;2023-08-21T23:24:25;10.73;;;7.30;;
78296;SDS011;67555;47.660;19.622;2023-08-21T23:26:51;11.25;;;6.93;;
78296;SDS011;67555;47.660;19.622;2023-08-21T23:29:16;10.45;;;7.88;;
78296;SDS011;67555;47.660;19.622;2023-08-21T23:31:42;8.40;;;6.70;;
78296;SDS011;67555;47.660;19.622;2023-08-21T23:34:08;10.52;;;7.13;;
78296;SDS011;67555;47.660;19.622;2023-08-21T23:36:34;9.75;;;6.45;;
78296;SDS011;67555;47.660;19.622;2023-08-21T23:38:59;9.77;;;7.15;;
78296;SDS011;67555;47.660;19.622;2023-08-21T23:41:25;8.73;;;6.78;;